sensor_id;sensor_type;location;lat;lon;timestamp;P1;durP1;ratioP1;P2;durP2;ratioP2
14592;SDS011;7383;52.354;9.756;2024-01-10T00:00:10;6.75;;;5.18;;
14592;SDS011;7383;52.354;9.756;2024-01-10T00:02:37;5.35;;;4.82;;
14592;SDS011;7383;52.354;9.756;2024-01-10T00:05:03;7.22;;;5.68;;
14592;SDS011;7383;52.354;9.756;2024-01-10T00:07:31;6.18;;;5.28;;
14592;SDS011;7383;52.354;9.756;2024-01-10T00:09:57;5.50;;;5.00;;
14592;SDS011;7383;52.354;9.756;2024-01-10T00:12:25;6.05;;;5.15;;
14592;SDS011;7383;52.354;9.756;2024-01-10T00:14:52;5.75;;;5.00;;
14592;SDS011;7383;52.354;9.756;2024-01-10T00:17:18;6.85;;;5.20;;
14592;SDS011;7383;52.354;9.756;2024-01-10T00:19:44;7.50;;;5.60;;
14592;SDS011;7383;52.354;9.756;2024-01-10T00:22:10;6.22;;;5.40;;
14592;SDS011;7383;52.354;9.756;2024-01-10T00:24:38;7.57;;;5.65;;
14592;SDS011;7383;52.354;9.756;2024-01-10T00:27:05;8.80;;;5.95;;
14592;SDS011;7383;52.354;9.756;2024-01-10T00:29:31;5.93;;;5.40;;
14592;SDS011;7383;52.354;9.756;2024-01-10T00:31:57;6.72;;;5.90;;
14592;SDS011;7383;52.354;9.756;2024-01-10T00:34:25;6.47;;;5.72;;
14592;SDS011;7383;52.354;9.756;2024-01-10T00:36:51;7.43;;;5.90;;
14592;SDS011;7383;52.354;9.756;2024-01-10T00:39:18;7.07;;;5.68;;
14592;SDS011;7383;52.354;9.756;2024-01-10T00:41:46;6.13;;;5.28;;
14592;SDS011;7383;52.354;9.756;2024-01-10T00:44:12;6.72;;;5.97;;
14592;SDS011;7383;52.354;9.756;2024-01-10T00:46:38;7.22;;;5.75;;
14592;SDS011;7383;52.354;9.756;2024-01-10T00:49:04;6.55;;;5.65;;
14592;SDS011;7383;52.354;9.756;2024-01-10T00:51:32;6.82;;;5.63;;
14592;SDS011;7383;52.354;9.756;2024-01-10T00:53:59;6.53;;;5.47;;
14592;SDS011;7383;52.354;9.756;2024-01-10T00:56:25;6.72;;;5.78;;
14592;SDS011;7383;52.354;9.756;2024-01-10T00:58:53;6.53;;;5.65;;
14592;SDS011;7383;52.354;9.756;2024-01-10T01:01:22;6.40;;;5.72;;
14592;SDS011;7383;52.354;9.756;2024-01-10T01:03:49;6.80;;;5.90;;
14592;SDS011;7383;52.354;9.756;2024-01-10T01:06:15;6.82;;;6.13;;
14592;SDS011;7383;52.354;9.756;2024-01-10T01:08:42;8.48;;;6.70;;
14592;SDS011;7383;52.354;9.756;2024-01-10T01:11:08;7.10;;;5.97;;
14592;SDS011;7383;52.354;9.756;2024-01-10T01:13:35;9.13;;;6.45;;
14592;SDS011;7383;52.354;9.756;2024-01-10T01:16:02;7.68;;;6.00;;
14592;SDS011;7383;52.354;9.756;2024-01-10T01:18:31;7.25;;;6.00;;
14592;SDS011;7383;52.354;9.756;2024-01-10T01:20:57;7.05;;;5.47;;
14592;SDS011;7383;52.354;9.756;2024-01-10T01:23:24;8.13;;;5.80;;
14592;SDS011;7383;52.354;9.756;2024-01-10T01:25:50;7.18;;;6.40;;
14592;SDS011;7383;52.354;9.756;2024-01-10T01:28:16;6.65;;;5.68;;
14592;SDS011;7383;52.354;9.756;2024-01-10T01:30:43;8.30;;;6.05;;
14592;SDS011;7383;52.354;9.756;2024-01-10T01:33:11;9.05;;;6.60;;
14592;SDS011;7383;52.354;9.756;2024-01-10T01:35:37;8.23;;;6.93;;
14592;SDS011;7383;52.354;9.756;2024-01-10T01:38:03;7.28;;;5.80;;
14592;SDS011;7383;52.354;9.756;2024-01-10T01:40:29;7.28;;;6.22;;
14592;SDS011;7383;52.354;9.756;2024-01-10T01:42:55;6.88;;;5.80;;
14592;SDS011;7383;52.354;9.756;2024-01-10T01:45:21;7.85;;;6.30;;
14592;SDS011;7383;52.354;9.756;2024-01-10T01:47:47;6.32;;;5.72;;
14592;SDS011;7383;52.354;9.756;2024-01-10T01:50:15;6.47;;;5.85;;
14592;SDS011;7383;52.354;9.756;2024-01-10T01:52:41;6.43;;;5.72;;
14592;SDS011;7383;52.354;9.756;2024-01-10T01:55:09;6.60;;;5.90;;
14592;SDS011;7383;52.354;9.756;2024-01-10T01:57:36;7.65;;;6.13;;
14592;SDS011;7383;52.354;9.756;2024-01-10T02:00:03;7.53;;;5.90;;
14592;SDS011;7383;52.354;9.756;2024-01-10T02:02:30;7.85;;;6.30;;
14592;SDS011;7383;52.354;9.756;2024-01-10T02:04:56;6.88;;;6.13;;
14592;SDS011;7383;52.354;9.756;2024-01-10T02:07:25;7.72;;;6.38;;
14592;SDS011;7383;52.354;9.756;2024-01-10T02:09:53;7.32;;;5.68;;
14592;SDS011;7383;52.354;9.756;2024-01-10T02:12:19;7.32;;;6.28;;
14592;SDS011;7383;52.354;9.756;2024-01-10T02:14:45;6.93;;;5.95;;
14592;SDS011;7383;52.354;9.756;2024-01-10T02:17:12;6.97;;;5.75;;
14592;SDS011;7383;52.354;9.756;2024-01-10T02:19:38;7.00;;;6.30;;
14592;SDS011;7383;52.354;9.756;2024-01-10T02:22:04;6.55;;;5.95;;
14592;SDS011;7383;52.354;9.756;2024-01-10T02:24:32;7.57;;;6.00;;
14592;SDS011;7383;52.354;9.756;2024-01-10T02:27:00;5.95;;;5.35;;
14592;SDS011;7383;52.354;9.756;2024-01-10T02:29:26;7.32;;;6.25;;
14592;SDS011;7383;52.354;9.756;2024-01-10T02:31:53;8.02;;;6.38;;
14592;SDS011;7383;52.354;9.756;2024-01-10T02:34:19;6.82;;;5.80;;
14592;SDS011;7383;52.354;9.756;2024-01-10T02:36:45;7.43;;;6.60;;
14592;SDS011;7383;52.354;9.756;2024-01-10T02:39:12;7.30;;;6.40;;
14592;SDS011;7383;52.354;9.756;2024-01-10T02:41:38;7.70;;;6.22;;
14592;SDS011;7383;52.354;9.756;2024-01-10T02:44:06;7.57;;;6.40;;
14592;SDS011;7383;52.354;9.756;2024-01-10T02:46:32;8.45;;;6.63;;
14592;SDS011;7383;52.354;9.756;2024-01-10T02:48:58;7.75;;;6.50;;
14592;SDS011;7383;52.354;9.756;2024-01-10T02:51:26;7.28;;;6.07;;
14592;SDS011;7383;52.354;9.756;2024-01-10T02:53:52;8.18;;;6.57;;
14592;SDS011;7383;52.354;9.756;2024-01-10T02:56:19;7.45;;;6.05;;
14592;SDS011;7383;52.354;9.756;2024-01-10T02:58:46;7.57;;;5.93;;
14592;SDS011;7383;52.354;9.756;2024-01-10T03:01:16;7.07;;;6.05;;
14592;SDS011;7383;52.354;9.756;2024-01-10T03:03:42;6.20;;;5.60;;
14592;SDS011;7383;52.354;9.756;2024-01-10T03:06:08;8.35;;;6.88;;
14592;SDS011;7383;52.354;9.756;2024-01-10T03:08:35;7.20;;;5.97;;
14592;SDS011;7383;52.354;9.756;2024-01-10T03:11:01;7.30;;;6.22;;
14592;SDS011;7383;52.354;9.756;2024-01-10T03:13:27;7.82;;;6.35;;
14592;SDS011;7383;52.354;9.756;2024-01-10T03:15:54;7.25;;;6.25;;
14592;SDS011;7383;52.354;9.756;2024-01-10T03:18:22;7.32;;;6.10;;
14592;SDS011;7383;52.354;9.756;2024-01-10T03:20:48;6.97;;;6.00;;
14592;SDS011;7383;52.354;9.756;2024-01-10T03:23:15;8.00;;;5.93;;
14592;SDS011;7383;52.354;9.756;2024-01-10T03:25:41;8.10;;;6.68;;
14592;SDS011;7383;52.354;9.756;2024-01-10T03:28:07;7.10;;;6.40;;
14592;SDS011;7383;52.354;9.756;2024-01-10T03:30:33;8.68;;;6.55;;
14592;SDS011;7383;52.354;9.756;2024-01-10T03:33:00;8.50;;;6.68;;
14592;SDS011;7383;52.354;9.756;2024-01-10T03:35:28;8.57;;;6.43;;
14592;SDS011;7383;52.354;9.756;2024-01-10T03:37:54;7.07;;;6.05;;
14592;SDS011;7383;52.354;9.756;2024-01-10T03:40:21;8.38;;;6.38;;
14592;SDS011;7383;52.354;9.756;2024-01-10T03:42:47;7.63;;;6.22;;
14592;SDS011;7383;52.354;9.756;2024-01-10T03:45:14;6.75;;;6.00;;
14592;SDS011;7383;52.354;9.756;2024-01-10T03:47:43;7.90;;;6.68;;
14592;SDS011;7383;52.354;9.756;2024-01-10T03:50:11;7.15;;;6.45;;
14592;SDS011;7383;52.354;9.756;2024-01-10T03:52:39;8.38;;;6.50;;
14592;SDS011;7383;52.354;9.756;2024-01-10T03:55:05;8.95;;;6.55;;
14592;SDS011;7383;52.354;9.756;2024-01-10T03:57:32;8.23;;;6.40;;
14592;SDS011;7383;52.354;9.756;2024-01-10T03:59:58;8.75;;;6.65;;
14592;SDS011;7383;52.354;9.756;2024-01-10T04:02:25;7.90;;;6.68;;
14592;SDS011;7383;52.354;9.756;2024-01-10T04:04:52;8.90;;;7.05;;
14592;SDS011;7383;52.354;9.756;2024-01-10T04:07:19;9.13;;;6.78;;
14592;SDS011;7383;52.354;9.756;2024-01-10T04:09:47;8.68;;;7.07;;
14592;SDS011;7383;52.354;9.756;2024-01-10T04:12:13;8.95;;;7.00;;
14592;SDS011;7383;52.354;9.756;2024-01-10T04:14:39;8.82;;;7.90;;
14592;SDS011;7383;52.354;9.756;2024-01-10T04:17:06;8.60;;;6.97;;
14592;SDS011;7383;52.354;9.756;2024-01-10T04:19:34;8.80;;;7.03;;
14592;SDS011;7383;52.354;9.756;2024-01-10T04:22:00;9.30;;;7.40;;
14592;SDS011;7383;52.354;9.756;2024-01-10T04:24:27;9.80;;;7.68;;
14592;SDS011;7383;52.354;9.756;2024-01-10T04:26:57;8.30;;;7.35;;
14592;SDS011;7383;52.354;9.756;2024-01-10T04:29:23;9.90;;;7.82;;
14592;SDS011;7383;52.354;9.756;2024-01-10T04:31:49;10.85;;;7.38;;
14592;SDS011;7383;52.354;9.756;2024-01-10T04:34:16;10.80;;;7.85;;
14592;SDS011;7383;52.354;9.756;2024-01-10T04:36:43;10.07;;;8.05;;
14592;SDS011;7383;52.354;9.756;2024-01-10T04:39:09;10.15;;;8.43;;
14592;SDS011;7383;52.354;9.756;2024-01-10T04:41:35;9.48;;;8.18;;
14592;SDS011;7383;52.354;9.756;2024-01-10T04:44:03;11.85;;;9.10;;
14592;SDS011;7383;52.354;9.756;2024-01-10T04:46:30;12.30;;;9.02;;
14592;SDS011;7383;52.354;9.756;2024-01-10T04:48:56;11.32;;;9.32;;
14592;SDS011;7383;52.354;9.756;2024-01-10T04:51:22;10.77;;;8.77;;
14592;SDS011;7383;52.354;9.756;2024-01-10T04:53:49;11.32;;;9.00;;
14592;SDS011;7383;52.354;9.756;2024-01-10T04:56:15;12.55;;;9.50;;
14592;SDS011;7383;52.354;9.756;2024-01-10T04:58:41;11.98;;;9.50;;
14592;SDS011;7383;52.354;9.756;2024-01-10T05:01:09;13.48;;;9.95;;
14592;SDS011;7383;52.354;9.756;2024-01-10T05:03:35;11.57;;;9.15;;
14592;SDS011;7383;52.354;9.756;2024-01-10T05:06:01;12.52;;;9.27;;
14592;SDS011;7383;52.354;9.756;2024-01-10T05:08:28;12.27;;;9.57;;
14592;SDS011;7383;52.354;9.756;2024-01-10T05:10:54;11.65;;;9.57;;
14592;SDS011;7383;52.354;9.756;2024-01-10T05:13:20;12.73;;;9.60;;
14592;SDS011;7383;52.354;9.756;2024-01-10T05:15:46;11.38;;;9.68;;
14592;SDS011;7383;52.354;9.756;2024-01-10T05:18:14;13.00;;;9.98;;
14592;SDS011;7383;52.354;9.756;2024-01-10T05:20:41;13.77;;;10.15;;
14592;SDS011;7383;52.354;9.756;2024-01-10T05:23:07;13.70;;;10.63;;
14592;SDS011;7383;52.354;9.756;2024-01-10T05:25:33;13.18;;;10.57;;
14592;SDS011;7383;52.354;9.756;2024-01-10T05:28:00;12.32;;;10.07;;
14592;SDS011;7383;52.354;9.756;2024-01-10T05:30:26;13.63;;;10.10;;
14592;SDS011;7383;52.354;9.756;2024-01-10T05:32:53;16.35;;;11.13;;
14592;SDS011;7383;52.354;9.756;2024-01-10T05:35:24;13.90;;;11.05;;
14592;SDS011;7383;52.354;9.756;2024-01-10T05:37:52;13.95;;;10.48;;
14592;SDS011;7383;52.354;9.756;2024-01-10T05:40:19;14.82;;;10.60;;
14592;SDS011;7383;52.354;9.756;2024-01-10T05:42:45;14.50;;;10.32;;
14592;SDS011;7383;52.354;9.756;2024-01-10T05:45:12;14.68;;;10.63;;
14592;SDS011;7383;52.354;9.756;2024-01-10T05:47:38;13.48;;;10.68;;
14592;SDS011;7383;52.354;9.756;2024-01-10T05:50:05;14.45;;;10.93;;
14592;SDS011;7383;52.354;9.756;2024-01-10T05:52:33;14.15;;;10.90;;
14592;SDS011;7383;52.354;9.756;2024-01-10T05:55:00;14.63;;;10.27;;
14592;SDS011;7383;52.354;9.756;2024-01-10T05:57:26;13.52;;;10.95;;
14592;SDS011;7383;52.354;9.756;2024-01-10T05:59:53;13.07;;;10.52;;
14592;SDS011;7383;52.354;9.756;2024-01-10T06:02:22;13.95;;;11.50;;
14592;SDS011;7383;52.354;9.756;2024-01-10T06:04:49;15.75;;;11.70;;
14592;SDS011;7383;52.354;9.756;2024-01-10T06:07:15;13.85;;;10.43;;
14592;SDS011;7383;52.354;9.756;2024-01-10T06:09:43;16.25;;;12.05;;
14592;SDS011;7383;52.354;9.756;2024-01-10T06:12:10;14.75;;;10.77;;
14592;SDS011;7383;52.354;9.756;2024-01-10T06:14:36;15.23;;;11.30;;
14592;SDS011;7383;52.354;9.756;2024-01-10T06:17:02;15.18;;;12.18;;
14592;SDS011;7383;52.354;9.756;2024-01-10T06:19:29;15.65;;;11.48;;
14592;SDS011;7383;52.354;9.756;2024-01-10T06:21:56;15.38;;;12.00;;
14592;SDS011;7383;52.354;9.756;2024-01-10T06:24:22;14.45;;;11.15;;
14592;SDS011;7383;52.354;9.756;2024-01-10T06:26:50;13.40;;;10.70;;
14592;SDS011;7383;52.354;9.756;2024-01-10T06:29:17;15.48;;;11.82;;
14592;SDS011;7383;52.354;9.756;2024-01-10T06:31:43;15.25;;;11.38;;
14592;SDS011;7383;52.354;9.756;2024-01-10T06:34:09;17.23;;;11.25;;
14592;SDS011;7383;52.354;9.756;2024-01-10T06:36:36;14.55;;;10.88;;
14592;SDS011;7383;52.354;9.756;2024-01-10T06:39:03;14.68;;;10.80;;
14592;SDS011;7383;52.354;9.756;2024-01-10T06:41:29;14.82;;;11.55;;
14592;SDS011;7383;52.354;9.756;2024-01-10T06:43:58;14.93;;;11.73;;
14592;SDS011;7383;52.354;9.756;2024-01-10T06:46:28;16.17;;;11.50;;
14592;SDS011;7383;52.354;9.756;2024-01-10T06:48:55;16.02;;;10.88;;
14592;SDS011;7383;52.354;9.756;2024-01-10T06:51:22;14.57;;;11.52;;
14592;SDS011;7383;52.354;9.756;2024-01-10T06:53:49;16.05;;;11.02;;
14592;SDS011;7383;52.354;9.756;2024-01-10T06:56:15;13.65;;;10.23;;
14592;SDS011;7383;52.354;9.756;2024-01-10T06:58:41;16.00;;;11.25;;
14592;SDS011;7383;52.354;9.756;2024-01-10T07:01:13;14.43;;;11.32;;
14592;SDS011;7383;52.354;9.756;2024-01-10T07:03:40;15.45;;;11.30;;
14592;SDS011;7383;52.354;9.756;2024-01-10T07:06:06;14.15;;;11.30;;
14592;SDS011;7383;52.354;9.756;2024-01-10T07:08:32;15.40;;;11.25;;
14592;SDS011;7383;52.354;9.756;2024-01-10T07:10:59;14.90;;;11.38;;
14592;SDS011;7383;52.354;9.756;2024-01-10T07:13:25;15.25;;;11.02;;
14592;SDS011;7383;52.354;9.756;2024-01-10T07:15:51;16.42;;;11.48;;
14592;SDS011;7383;52.354;9.756;2024-01-10T07:18:19;15.27;;;11.68;;
14592;SDS011;7383;52.354;9.756;2024-01-10T07:20:45;15.38;;;11.27;;
14592;SDS011;7383;52.354;9.756;2024-01-10T07:23:12;14.35;;;11.32;;
14592;SDS011;7383;52.354;9.756;2024-01-10T07:25:38;16.90;;;12.00;;
14592;SDS011;7383;52.354;9.756;2024-01-10T07:28:04;15.88;;;10.60;;
14592;SDS011;7383;52.354;9.756;2024-01-10T07:30:31;15.63;;;11.65;;
14592;SDS011;7383;52.354;9.756;2024-01-10T07:32:58;14.75;;;11.00;;
14592;SDS011;7383;52.354;9.756;2024-01-10T07:35:26;16.45;;;12.18;;
14592;SDS011;7383;52.354;9.756;2024-01-10T07:37:54;18.17;;;11.52;;
14592;SDS011;7383;52.354;9.756;2024-01-10T07:40:20;15.00;;;12.00;;
14592;SDS011;7383;52.354;9.756;2024-01-10T07:42:47;15.05;;;11.15;;
14592;SDS011;7383;52.354;9.756;2024-01-10T07:45:13;15.68;;;12.00;;
14592;SDS011;7383;52.354;9.756;2024-01-10T07:47:40;16.17;;;11.93;;
14592;SDS011;7383;52.354;9.756;2024-01-10T07:50:06;16.08;;;11.88;;
14592;SDS011;7383;52.354;9.756;2024-01-10T07:52:34;16.58;;;11.07;;
14592;SDS011;7383;52.354;9.756;2024-01-10T07:55:01;16.20;;;11.55;;
14592;SDS011;7383;52.354;9.756;2024-01-10T07:57:30;16.05;;;12.45;;
14592;SDS011;7383;52.354;9.756;2024-01-10T07:59:56;16.63;;;12.63;;
14592;SDS011;7383;52.354;9.756;2024-01-10T08:02:23;17.92;;;12.38;;
14592;SDS011;7383;52.354;9.756;2024-01-10T08:04:49;17.98;;;12.63;;
14592;SDS011;7383;52.354;9.756;2024-01-10T08:07:16;17.13;;;12.40;;
14592;SDS011;7383;52.354;9.756;2024-01-10T08:09:44;17.15;;;12.38;;
14592;SDS011;7383;52.354;9.756;2024-01-10T08:12:10;15.98;;;11.63;;
14592;SDS011;7383;52.354;9.756;2024-01-10T08:14:36;17.42;;;12.63;;
14592;SDS011;7383;52.354;9.756;2024-01-10T08:17:03;15.27;;;12.00;;
14592;SDS011;7383;52.354;9.756;2024-01-10T08:19:29;17.58;;;12.57;;
14592;SDS011;7383;52.354;9.756;2024-01-10T08:21:56;17.83;;;12.77;;
14592;SDS011;7383;52.354;9.756;2024-01-10T08:24:22;18.58;;;13.00;;
14592;SDS011;7383;52.354;9.756;2024-01-10T08:26:50;15.35;;;11.75;;
14592;SDS011;7383;52.354;9.756;2024-01-10T08:29:17;17.60;;;13.02;;
14592;SDS011;7383;52.354;9.756;2024-01-10T08:31:43;16.58;;;12.13;;
14592;SDS011;7383;52.354;9.756;2024-01-10T08:34:09;15.80;;;11.95;;
14592;SDS011;7383;52.354;9.756;2024-01-10T08:36:35;17.35;;;12.55;;
14592;SDS011;7383;52.354;9.756;2024-01-10T08:39:02;16.92;;;12.95;;
14592;SDS011;7383;52.354;9.756;2024-01-10T08:41:29;17.98;;;13.80;;
14592;SDS011;7383;52.354;9.756;2024-01-10T08:43:57;18.08;;;13.02;;
14592;SDS011;7383;52.354;9.756;2024-01-10T08:46:23;16.50;;;12.52;;
14592;SDS011;7383;52.354;9.756;2024-01-10T08:48:50;17.70;;;13.20;;
14592;SDS011;7383;52.354;9.756;2024-01-10T08:51:16;16.73;;;12.48;;
14592;SDS011;7383;52.354;9.756;2024-01-10T08:53:42;17.02;;;13.50;;
14592;SDS011;7383;52.354;9.756;2024-01-10T08:56:09;17.30;;;13.55;;
14592;SDS011;7383;52.354;9.756;2024-01-10T08:58:35;17.20;;;13.00;;
14592;SDS011;7383;52.354;9.756;2024-01-10T09:01:03;15.90;;;12.20;;
14592;SDS011;7383;52.354;9.756;2024-01-10T09:03:30;19.38;;;13.82;;
14592;SDS011;7383;52.354;9.756;2024-01-10T09:05:56;18.25;;;14.13;;
14592;SDS011;7383;52.354;9.756;2024-01-10T09:08:22;21.05;;;14.15;;
14592;SDS011;7383;52.354;9.756;2024-01-10T09:10:49;20.45;;;14.10;;
14592;SDS011;7383;52.354;9.756;2024-01-10T09:13:15;19.65;;;13.88;;
14592;SDS011;7383;52.354;9.756;2024-01-10T09:15:42;18.50;;;14.60;;
14592;SDS011;7383;52.354;9.756;2024-01-10T09:18:10;20.70;;;14.13;;
14592;SDS011;7383;52.354;9.756;2024-01-10T09:20:36;21.38;;;14.88;;
14592;SDS011;7383;52.354;9.756;2024-01-10T09:23:02;18.15;;;13.48;;
14592;SDS011;7383;52.354;9.756;2024-01-10T09:25:29;19.67;;;15.07;;
14592;SDS011;7383;52.354;9.756;2024-01-10T09:27:55;21.50;;;15.15;;
14592;SDS011;7383;52.354;9.756;2024-01-10T09:30:24;21.02;;;14.50;;
14592;SDS011;7383;52.354;9.756;2024-01-10T09:32:50;19.10;;;13.85;;
14592;SDS011;7383;52.354;9.756;2024-01-10T09:35:18;21.45;;;14.98;;
14592;SDS011;7383;52.354;9.756;2024-01-10T09:37:44;19.30;;;15.32;;
14592;SDS011;7383;52.354;9.756;2024-01-10T09:40:11;20.08;;;14.32;;
14592;SDS011;7383;52.354;9.756;2024-01-10T09:42:40;20.75;;;15.20;;
14592;SDS011;7383;52.354;9.756;2024-01-10T09:45:07;20.88;;;14.98;;
14592;SDS011;7383;52.354;9.756;2024-01-10T09:47:34;18.42;;;14.20;;
14592;SDS011;7383;52.354;9.756;2024-01-10T09:50:01;20.95;;;15.43;;
14592;SDS011;7383;52.354;9.756;2024-01-10T09:52:31;21.38;;;15.98;;
14592;SDS011;7383;52.354;9.756;2024-01-10T09:55:00;20.85;;;14.38;;
14592;SDS011;7383;52.354;9.756;2024-01-10T09:57:27;19.98;;;15.18;;
14592;SDS011;7383;52.354;9.756;2024-01-10T09:59:54;19.88;;;15.15;;
14592;SDS011;7383;52.354;9.756;2024-01-10T10:02:20;21.75;;;15.80;;
14592;SDS011;7383;52.354;9.756;2024-01-10T10:04:49;21.80;;;15.68;;
14592;SDS011;7383;52.354;9.756;2024-01-10T10:07:17;17.27;;;14.93;;
14592;SDS011;7383;52.354;9.756;2024-01-10T10:09:45;21.92;;;15.52;;
14592;SDS011;7383;52.354;9.756;2024-01-10T10:12:11;20.55;;;16.10;;
14592;SDS011;7383;52.354;9.756;2024-01-10T10:14:37;19.92;;;14.75;;
14592;SDS011;7383;52.354;9.756;2024-01-10T10:17:13;19.45;;;14.80;;
14592;SDS011;7383;52.354;9.756;2024-01-10T10:19:39;20.35;;;14.63;;
14592;SDS011;7383;52.354;9.756;2024-01-10T10:22:07;19.45;;;14.73;;
14592;SDS011;7383;52.354;9.756;2024-01-10T10:24:34;17.75;;;13.80;;
14592;SDS011;7383;52.354;9.756;2024-01-10T10:27:01;23.35;;;16.15;;
14592;SDS011;7383;52.354;9.756;2024-01-10T10:29:28;21.67;;;16.00;;
14592;SDS011;7383;52.354;9.756;2024-01-10T10:31:54;19.80;;;14.98;;
14592;SDS011;7383;52.354;9.756;2024-01-10T10:34:21;21.23;;;15.57;;
14592;SDS011;7383;52.354;9.756;2024-01-10T10:36:48;24.08;;;16.83;;
14592;SDS011;7383;52.354;9.756;2024-01-10T10:39:15;19.42;;;15.23;;
14592;SDS011;7383;52.354;9.756;2024-01-10T10:41:42;22.17;;;16.55;;
14592;SDS011;7383;52.354;9.756;2024-01-10T10:44:10;20.83;;;14.82;;
14592;SDS011;7383;52.354;9.756;2024-01-10T10:46:37;20.02;;;15.35;;
14592;SDS011;7383;52.354;9.756;2024-01-10T10:51:48;19.73;;;14.57;;
14592;SDS011;7383;52.354;9.756;2024-01-10T10:54:16;18.90;;;14.73;;
14592;SDS011;7383;52.354;9.756;2024-01-10T10:56:43;21.38;;;15.60;;
14592;SDS011;7383;52.354;9.756;2024-01-10T10:59:11;19.88;;;15.43;;
14592;SDS011;7383;52.354;9.756;2024-01-10T11:01:38;20.95;;;15.80;;
14592;SDS011;7383;52.354;9.756;2024-01-10T11:04:05;21.40;;;15.80;;
14592;SDS011;7383;52.354;9.756;2024-01-10T11:06:31;22.17;;;16.45;;
14592;SDS011;7383;52.354;9.756;2024-01-10T11:08:59;22.63;;;16.73;;
14592;SDS011;7383;52.354;9.756;2024-01-10T11:11:34;22.00;;;16.13;;
14592;SDS011;7383;52.354;9.756;2024-01-10T11:14:09;19.85;;;15.77;;
14592;SDS011;7383;52.354;9.756;2024-01-10T11:16:44;21.67;;;15.77;;
14592;SDS011;7383;52.354;9.756;2024-01-10T11:19:20;22.70;;;16.35;;
14592;SDS011;7383;52.354;9.756;2024-01-10T11:21:51;19.77;;;14.77;;
14592;SDS011;7383;52.354;9.756;2024-01-10T11:24:20;21.05;;;15.68;;
14592;SDS011;7383;52.354;9.756;2024-01-10T11:26:47;20.75;;;15.02;;
14592;SDS011;7383;52.354;9.756;2024-01-10T11:29:14;21.33;;;15.55;;
14592;SDS011;7383;52.354;9.756;2024-01-10T11:31:43;19.80;;;15.80;;
14592;SDS011;7383;52.354;9.756;2024-01-10T11:34:16;20.73;;;15.60;;
14592;SDS011;7383;52.354;9.756;2024-01-10T11:36:47;20.65;;;16.08;;
14592;SDS011;7383;52.354;9.756;2024-01-10T11:39:34;19.85;;;15.52;;
14592;SDS011;7383;52.354;9.756;2024-01-10T11:42:01;19.85;;;15.75;;
14592;SDS011;7383;52.354;9.756;2024-01-10T11:44:28;20.85;;;16.70;;
14592;SDS011;7383;52.354;9.756;2024-01-10T11:46:55;19.90;;;15.60;;
14592;SDS011;7383;52.354;9.756;2024-01-10T11:49:22;20.58;;;15.32;;
14592;SDS011;7383;52.354;9.756;2024-01-10T11:51:50;20.50;;;15.45;;
14592;SDS011;7383;52.354;9.756;2024-01-10T11:56:57;20.27;;;15.63;;
14592;SDS011;7383;52.354;9.756;2024-01-10T11:59:23;18.60;;;14.52;;
14592;SDS011;7383;52.354;9.756;2024-01-10T12:01:50;18.05;;;14.23;;
14592;SDS011;7383;52.354;9.756;2024-01-10T12:04:18;16.75;;;13.65;;
14592;SDS011;7383;52.354;9.756;2024-01-10T12:06:45;17.25;;;13.68;;
14592;SDS011;7383;52.354;9.756;2024-01-10T12:09:12;18.25;;;14.57;;
14592;SDS011;7383;52.354;9.756;2024-01-10T12:11:39;16.70;;;14.27;;
14592;SDS011;7383;52.354;9.756;2024-01-10T12:14:05;17.88;;;14.48;;
14592;SDS011;7383;52.354;9.756;2024-01-10T12:16:32;18.83;;;15.07;;
14592;SDS011;7383;52.354;9.756;2024-01-10T12:18:58;15.50;;;13.88;;
14592;SDS011;7383;52.354;9.756;2024-01-10T12:21:26;15.38;;;13.80;;
14592;SDS011;7383;52.354;9.756;2024-01-10T12:23:53;16.55;;;14.85;;
14592;SDS011;7383;52.354;9.756;2024-01-10T12:26:19;19.25;;;14.77;;
14592;SDS011;7383;52.354;9.756;2024-01-10T12:28:53;16.63;;;14.38;;
14592;SDS011;7383;52.354;9.756;2024-01-10T12:31:19;15.65;;;13.75;;
14592;SDS011;7383;52.354;9.756;2024-01-10T12:33:47;16.13;;;14.40;;
14592;SDS011;7383;52.354;9.756;2024-01-10T12:36:14;18.35;;;15.23;;
14592;SDS011;7383;52.354;9.756;2024-01-10T12:38:41;16.38;;;14.68;;
14592;SDS011;7383;52.354;9.756;2024-01-10T12:41:08;16.52;;;14.73;;
14592;SDS011;7383;52.354;9.756;2024-01-10T12:43:34;17.58;;;14.77;;
14592;SDS011;7383;52.354;9.756;2024-01-10T12:46:07;15.70;;;14.00;;
14592;SDS011;7383;52.354;9.756;2024-01-10T12:48:35;15.65;;;13.93;;
14592;SDS011;7383;52.354;9.756;2024-01-10T12:51:03;17.17;;;15.02;;
14592;SDS011;7383;52.354;9.756;2024-01-10T12:53:32;15.65;;;14.02;;
14592;SDS011;7383;52.354;9.756;2024-01-10T12:56:00;16.05;;;14.35;;
14592;SDS011;7383;52.354;9.756;2024-01-10T12:58:27;15.23;;;13.65;;
14592;SDS011;7383;52.354;9.756;2024-01-10T13:00:53;14.98;;;13.38;;
14592;SDS011;7383;52.354;9.756;2024-01-10T13:03:20;16.40;;;14.32;;
14592;SDS011;7383;52.354;9.756;2024-01-10T13:05:47;15.52;;;13.90;;
14592;SDS011;7383;52.354;9.756;2024-01-10T13:08:13;16.20;;;13.93;;
14592;SDS011;7383;52.354;9.756;2024-01-10T13:10:39;16.63;;;14.88;;
14592;SDS011;7383;52.354;9.756;2024-01-10T13:13:07;18.05;;;14.93;;
14592;SDS011;7383;52.354;9.756;2024-01-10T13:15:33;16.27;;;14.05;;
14592;SDS011;7383;52.354;9.756;2024-01-10T13:18:00;17.40;;;14.90;;
14592;SDS011;7383;52.354;9.756;2024-01-10T13:20:26;16.90;;;14.45;;
14592;SDS011;7383;52.354;9.756;2024-01-10T13:22:52;17.63;;;14.63;;
14592;SDS011;7383;52.354;9.756;2024-01-10T13:25:19;16.85;;;14.20;;
14592;SDS011;7383;52.354;9.756;2024-01-10T13:27:48;15.98;;;13.23;;
14592;SDS011;7383;52.354;9.756;2024-01-10T13:30:15;16.33;;;13.90;;
14592;SDS011;7383;52.354;9.756;2024-01-10T13:32:42;17.80;;;14.00;;
14592;SDS011;7383;52.354;9.756;2024-01-10T13:35:09;15.55;;;13.77;;
14592;SDS011;7383;52.354;9.756;2024-01-10T13:37:35;15.60;;;13.45;;
14592;SDS011;7383;52.354;9.756;2024-01-10T13:40:01;17.30;;;13.75;;
14592;SDS011;7383;52.354;9.756;2024-01-10T13:42:30;15.55;;;12.80;;
14592;SDS011;7383;52.354;9.756;2024-01-10T13:44:57;17.00;;;13.15;;
14592;SDS011;7383;52.354;9.756;2024-01-10T13:47:25;15.77;;;13.55;;
14592;SDS011;7383;52.354;9.756;2024-01-10T13:49:51;16.92;;;13.38;;
14592;SDS011;7383;52.354;9.756;2024-01-10T13:52:18;18.55;;;13.77;;
14592;SDS011;7383;52.354;9.756;2024-01-10T13:54:44;17.83;;;13.75;;
14592;SDS011;7383;52.354;9.756;2024-01-10T13:57:10;15.15;;;13.55;;
14592;SDS011;7383;52.354;9.756;2024-01-10T13:59:36;18.20;;;14.07;;
14592;SDS011;7383;52.354;9.756;2024-01-10T14:02:03;18.10;;;14.40;;
14592;SDS011;7383;52.354;9.756;2024-01-10T14:04:32;17.15;;;13.35;;
14592;SDS011;7383;52.354;9.756;2024-01-10T14:06:59;15.65;;;13.50;;
14592;SDS011;7383;52.354;9.756;2024-01-10T14:09:25;17.80;;;14.32;;
14592;SDS011;7383;52.354;9.756;2024-01-10T14:11:52;20.75;;;15.60;;
14592;SDS011;7383;52.354;9.756;2024-01-10T14:14:18;17.90;;;14.00;;
14592;SDS011;7383;52.354;9.756;2024-01-10T14:16:44;16.75;;;13.07;;
14592;SDS011;7383;52.354;9.756;2024-01-10T14:19:11;16.92;;;13.55;;
14592;SDS011;7383;52.354;9.756;2024-01-10T14:21:38;18.85;;;13.85;;
14592;SDS011;7383;52.354;9.756;2024-01-10T14:24:05;18.63;;;13.23;;
14592;SDS011;7383;52.354;9.756;2024-01-10T14:26:31;17.10;;;12.93;;
14592;SDS011;7383;52.354;9.756;2024-01-10T14:28:58;17.27;;;13.70;;
14592;SDS011;7383;52.354;9.756;2024-01-10T14:31:24;17.92;;;13.90;;
14592;SDS011;7383;52.354;9.756;2024-01-10T14:33:51;16.42;;;12.73;;
14592;SDS011;7383;52.354;9.756;2024-01-10T14:36:17;16.92;;;13.07;;
14592;SDS011;7383;52.354;9.756;2024-01-10T14:38:44;15.88;;;12.45;;
14592;SDS011;7383;52.354;9.756;2024-01-10T14:41:11;17.30;;;13.02;;
14592;SDS011;7383;52.354;9.756;2024-01-10T14:43:37;15.90;;;12.38;;
14592;SDS011;7383;52.354;9.756;2024-01-10T14:46:03;17.33;;;13.00;;